Latest Weather Observations for Pound Creek

IDV60801

Issued at 5:32 pm EST Saturday 27 May 2017 (issued every 30 minutes, with the page automatically refreshed every 10 minutes)

About weather observations | Map of weather stations | Latest weather observations for VIC | Other Formats
Station Details ID: 085099 Name: POUND CREEK Lat: -38.63 Lon: 145.81 Height: 3.0 m
Data from the previous 72 hours. | See also: Recent months at Pound Creek
Date/Time
EST
Temp
°C
App
Temp
°C
Dew
Point
°C
Rel
Hum
%
Delta-T
°C
Wind Press
QNH
hPa
Press
MSL
hPa
Rain since
9am
mm
Dir  Spd
km/h
Gust
km/h
Spd
kts
Gust
kts
27/05:30pm 14.3 12.1 8.0 66 3.1 NNE 9 13 5 7 1010.9 1010.9 0.0
27/05:00pm 15.4 13.1 8.9 65 3.3 NE 11 17 6 9 1011.1 1011.1 0.0
27/04:30pm 15.4 13.2 9.3 67 3.1 NNE 11 19 6 10 1011.2 1011.2 0.0
27/04:00pm 16.1 13.4 9.1 63 3.6 N 13 19 7 10 1011.5 1011.5 0.0
27/03:30pm 16.6 13.1 8.8 60 4.0 NNW 17 28 9 15 1011.6 1011.6 0.0
27/03:00pm 17.0 13.0 8.9 59 4.2 NNW 20 41 11 22 1011.8 1011.8 0.0
27/02:30pm 17.0 13.8 9.9 63 3.7 N 17 24 9 13 1012.2 1012.2 0.0
27/02:00pm 17.0 13.4 9.9 63 3.7 NNW 19 30 10 16 1012.6 1012.6 0.0
27/01:30pm 17.0 12.8 9.9 63 3.7 NNW 22 35 12 19 1013.0 1013.0 0.0
27/01:00pm 17.0 12.5 10.1 64 3.6 NNW 24 37 13 20 1013.4 1013.4 0.0
27/12:30pm 16.6 12.1 10.2 66 3.4 N 24 39 13 21 1013.9 1013.9 0.0
27/12:00pm 17.1 13.6 10.9 67 3.3 N 20 35 11 19 1014.7 1014.7 0.0
27/11:30am 16.5 12.5 10.6 68 3.1 N 22 37 12 20 1015.3 1015.3 0.0
27/11:00am 16.1 12.1 10.6 70 2.9 NNW 22 32 12 17 1016.0 1016.0 0.0
27/10:30am 15.6 12.0 10.6 72 2.6 NNW 20 33 11 18 1016.3 1016.3 0.0
27/10:00am 14.9 11.4 10.3 74 2.4 NNW 19 28 10 15 1016.6 1016.6 0.0
27/09:30am 15.1 11.4 10.3 73 2.5 NNW 20 32 11 17 1016.7 1016.7 0.0
27/09:00am 14.4 11.3 10.2 76 2.2 N 17 24 9 13 1017.0 1017.0 0.2
27/08:30am 13.5 10.2 9.7 78 1.9 N 17 24 9 13 1017.1 1017.1 0.2
27/08:00am 13.1 9.4 9.5 79 1.8 N 19 26 10 14 1017.1 1017.1 0.2
27/07:30am 12.0 9.1 9.6 85 1.2 N 15 20 8 11 1017.0 1017.0 0.2
27/07:00am 11.1 8.3 8.7 85 1.2 N 13 17 7 9 1017.0 1017.0 0.2
27/06:30am 10.8 8.0 8.4 85 1.2 N 13 20 7 11 1016.9 1016.9 0.2
27/06:00am 10.1 8.0 8.2 88 0.9 N 9 13 5 7 1016.7 1016.7 0.2
27/05:30am 9.8 7.9 7.6 86 1.0 NNE 7 11 4 6 1016.9 1016.9 0.2
27/05:00am 9.8 7.5 7.6 86 1.0 NNE 9 13 5 7 1017.1 1017.1 0.2
27/04:30am 10.2 7.3 8.1 87 1.0 N 13 17 7 9 1017.1 1017.1 0.2
27/04:00am 10.1 7.6 8.0 87 1.0 NNE 11 17 6 9 1017.3 1017.3 0.2
27/03:30am 10.3 7.8 8.4 88 0.9 N 11 15 6 8 1017.6 1017.6 0.2
27/03:00am 9.7 8.0 8.3 91 0.7 N 7 15 4 8 1017.9 1017.9 0.2
27/02:30am 9.0 7.0 7.3 89 0.8 NE 7 11 4 6 1018.1 1018.1 0.2
27/02:00am 8.9 6.2 7.4 90 0.7 NNE 11 13 6 7 1018.4 1018.4 0.2
27/01:30am 8.9 6.6 7.4 90 0.7 N 9 13 5 7 1018.7 1018.7 0.2
27/01:00am 9.2 6.9 7.3 88 0.9 N 9 15 5 8 1018.9 1018.9 0.2
27/12:30am 9.9 7.7 8.0 88 0.9 NNE 9 13 5 7 1019.1 1019.1 0.2
27/12:00am 10.3 7.0 8.2 87 1.0 NNE 15 20 8 11 1019.2 1019.2 0.2
 
Date/Time
EST
Temp
°C
App
Temp
°C
Dew
Point
°C
Rel
Hum
%
Delta-T
°C
Wind Press
QNH
hPa
Press
MSL
hPa
Rain since
9am
mm
Dir  Spd
km/h
Gust
km/h
Spd
kts
Gust
kts
26/11:30pm 10.4 7.5 8.0 85 1.2 NNE 13 19 7 10 1019.2 1019.2 0.2
26/11:00pm 9.8 6.8 7.7 87 1.0 NNE 13 20 7 11 1019.5 1019.5 0.2
26/10:30pm 9.5 6.0 7.4 87 1.0 NNE 15 20 8 11 1019.6 1019.6 0.2
26/10:00pm 8.2 5.3 6.5 89 0.8 N 11 13 6 7 1019.8 1019.8 0.2
26/09:30pm 7.7 5.6 6.0 89 0.8 N 6 7 3 4 1020.0 1020.0 0.2
26/09:00pm 8.3 6.3 6.4 88 0.9 NNE 6 9 3 5 1020.0 1020.0 0.2
26/08:30pm 8.1 7.2 6.1 87 0.9 CALM 0 0 0 0 1020.1 1020.1 0.2
26/08:00pm 9.3 8.0 7.7 90 0.8 NNE 4 9 2 5 1020.1 1020.1 0.2
26/07:30pm 7.8 7.0 6.4 91 0.6 CALM 0 2 0 1 1020.1 1020.1 0.2
26/07:00pm 7.8 6.9 6.1 89 0.8 CALM 0 2 0 1 1020.0 1020.0 0.2
26/06:30pm 7.8 6.8 5.8 87 0.9 CALM 0 0 0 0 1019.9 1019.9 0.2
26/06:00pm 8.8 7.6 6.6 86 1.0 WNW 2 2 1 1 1020.0 1020.0 0.2
26/05:30pm 10.0 9.0 7.3 83 1.3 WNW 2 4 1 2 1020.0 1020.0 0.2
26/05:00pm 11.5 10.1 7.2 75 2.1 W 4 6 2 3 1019.9 1019.9 0.2
26/04:30pm 14.7 14.5 8.9 68 2.9 CALM 0 0 0 0 1020.0 1020.0 0.2
26/04:00pm 14.0 13.2 8.0 67 3.0 W 2 6 1 3 1020.1 1020.1 0.2
26/03:30pm 15.0 13.5 8.3 64 3.4 SW 6 9 3 5 1020.0 1020.0 0.2
26/03:00pm 15.7 13.2 8.4 62 3.7 SW 11 15 6 8 1020.1 1020.1 0.2
26/02:30pm 15.8 13.4 8.8 63 3.6 SSW 11 15 6 8 1020.1 1020.1 0.2
26/02:00pm 15.1 12.7 8.8 66 3.2 SSW 11 15 6 8 1020.2 1020.2 0.2
26/01:30pm 15.6 13.2 8.8 64 3.5 SW 11 17 6 9 1020.5 1020.5 0.2
26/01:00pm 14.8 12.9 9.0 68 2.9 WSW 9 13 5 7 1020.9 1020.9 0.2
26/12:30pm 15.1 12.4 8.8 66 3.2 WSW 13 19 7 10 1021.1 1021.1 0.2
26/12:00pm 15.7 12.4 9.4 66 3.2 WSW 17 22 9 12 1021.5 1021.5 0.0
26/11:30am 16.6 14.2 10.0 65 3.5 WNW 13 19 7 10 1021.9 1021.9 0.0
26/11:00am 16.5 14.4 9.9 65 3.4 WNW 11 20 6 11 1022.1 1022.1 0.0
26/10:30am 16.0 14.7 9.2 64 3.5 NW 6 9 3 5 1022.2 1022.2 0.0
26/10:00am 15.1 13.7 9.0 67 3.1 WNW 6 11 3 6 1022.2 1022.2 0.0
26/09:30am 13.4 12.1 9.3 76 2.1 NW 6 9 3 5 1022.2 1022.2 0.0
26/09:00am 12.4 11.5 10.5 88 1.0 NW 6 9 3 5 1022.2 1022.2 4.6
26/08:30am 10.6 9.2 9.4 92 0.6 N 7 9 4 5 1022.0 1022.0 4.6
26/08:00am 10.4 8.9 9.3 93 0.5 N 7 9 4 5 1021.8 1021.8 4.6
26/07:30am 10.9 9.5 9.7 92 0.6 NNW 7 7 4 4 1021.5 1021.5 4.6
26/07:00am 11.3 10.0 10.0 92 0.7 NW 7 9 4 5 1021.1 1021.1 4.6
26/06:30am 11.5 10.5 10.2 92 0.7 NNW 6 7 3 4 1020.8 1020.8 4.6
26/06:00am 11.6 10.4 10.3 92 0.7 NW 7 11 4 6 1020.5 1020.5 4.6
26/05:30am 11.9 11.0 10.6 92 0.7 W 6 9 3 5 1020.1 1020.1 4.6
26/05:00am 11.9 10.5 10.8 93 0.6 W 9 13 5 7 1019.7 1019.7 4.4
26/04:30am 12.0 11.0 11.1 94 0.5 NW 7 11 4 6 1019.3 1019.3 4.4
26/04:00am 12.3 11.6 11.4 94 0.5 WNW 6 13 3 7 1019.2 1019.2 4.4
26/03:30am 12.5 11.9 11.6 94 0.5 WNW 6 11 3 6 1019.1 1019.1 4.4
26/03:00am 12.5 11.7 11.6 94 0.5 WNW 7 9 4 5 1018.9 1018.9 4.4
26/02:30am 12.7 11.9 11.8 94 0.5 W 7 11 4 6 1018.9 1018.9 4.0
26/02:00am 12.7 11.5 11.6 93 0.6 WNW 9 19 5 10 1018.9 1018.9 3.2
26/01:30am 12.7 11.9 11.6 93 0.6 NW 7 13 4 7 1018.7 1018.7 2.4
26/01:00am 12.6 11.3 11.3 92 0.7 NW 9 17 5 9 1018.5 1018.5 2.0
26/12:30am 12.7 11.4 11.3 91 0.7 NW 9 15 5 8 1018.6 1018.6 2.0
26/12:00am 13.0 11.4 11.6 91 0.7 WNW 11 19 6 10 1018.7 1018.7 2.0
 
Date/Time
EST
Temp
°C
App
Temp
°C
Dew
Point
°C
Rel
Hum
%
Delta-T
°C
Wind Press
QNH
hPa
Press
MSL
hPa
Rain since
9am
mm
Dir  Spd
km/h
Gust
km/h
Spd
kts
Gust
kts
25/11:30pm 13.1 12.2 11.5 90 0.8 NW 7 17 4 9 1018.6 1018.6 2.0
25/11:00pm 13.4 12.1 11.3 87 1.1 WSW 9 15 5 8 1018.6 1018.6 1.2
25/10:30pm 13.5 11.7 10.9 84 1.4 NW 11 20 6 11 1018.1 1018.1 0.2
25/10:00pm 14.1 11.8 10.3 78 2.0 NNW 13 22 7 12 1017.9 1017.9 0.0
25/09:30pm 14.1 11.7 10.1 77 2.1 NW 13 22 7 12 1017.8 1017.8 0.0
25/09:00pm 13.9 11.5 10.1 78 2.0 NNW 13 22 7 12 1017.8 1017.8 0.0
25/08:30pm 14.4 11.3 10.2 76 2.2 NNW 17 28 9 15 1017.8 1017.8 0.0
25/08:00pm 14.1 10.9 10.1 77 2.1 NNW 17 28 9 15 1017.7 1017.7 0.0
25/07:30pm 13.6 11.3 10.4 81 1.7 NW 13 24 7 13 1017.7 1017.7 0.0
25/07:00pm 13.2 11.0 10.7 85 1.3 NNW 13 22 7 12 1017.7 1017.7 0.0
25/06:30pm 13.6 10.2 10.6 82 1.6 NW 19 35 10 19 1017.6 1017.6 0.0
25/06:00pm 14.7 11.6 8.9 68 2.9 NNW 15 22 8 12 1017.3 1017.3 0.0
25/05:30pm 14.8 12.0 8.7 67 3.1 NNW 13 24 7 13 1017.1 1017.1 0.0
25/05:00pm 14.7 11.9 8.6 67 3.1 NNW 13 22 7 12 1016.9 1016.9 0.0
25/04:30pm 15.0 11.4 8.5 65 3.3 NNW 17 30 9 16 1016.9 1016.9 0.0
25/04:00pm 15.1 11.5 8.3 64 3.4 NW 17 26 9 14 1016.8 1016.8 0.0
25/03:30pm 15.6 11.6 8.1 61 3.8 NNW 19 30 10 16 1016.9 1016.9 0.0
25/03:00pm 16.0 11.7 8.0 59 4.0 NNW 20 33 11 18 1017.1 1017.1 0.0
25/02:30pm 16.4 12.8 8.4 59 4.1 NNW 17 28 9 15 1017.2 1017.2 0.0
25/02:00pm 16.6 13.0 8.3 58 4.2 NNW 17 30 9 16 1017.4 1017.4 0.0
25/01:30pm 15.9 11.8 7.7 58 4.1 NW 19 32 10 17 1017.8 1017.8 0.0
25/01:00pm 15.7 11.0 7.7 59 4.0 NW 22 33 12 18 1018.1 1018.1 0.0
25/12:30pm 15.4 11.7 7.9 61 3.8 NNW 17 32 9 17 1018.4 1018.4 0.0
25/12:00pm 14.5 10.4 7.8 64 3.3 NW 19 33 10 18 1019.0 1019.0 0.0
25/11:30am 13.7 9.7 8.3 70 2.7 WNW 19 39 10 21 1019.6 1019.6 0.0
25/11:00am 13.7 12.3 9.4 75 2.2 NW 7 13 4 7 1019.7 1019.7 0.0
25/10:30am 13.8 11.9 9.0 73 2.4 NW 9 17 5 9 1019.7 1019.7 0.0
25/10:00am 13.8 11.7 8.4 70 2.7 NW 9 15 5 8 1019.8 1019.8 0.0
25/09:30am 13.7 11.9 8.1 69 2.8 NW 7 13 4 7 1019.6 1019.6 0.0
25/09:00am 13.6 11.0 7.8 68 2.9 WNW 11 19 6 10 1019.7 1019.7 3.4
25/08:30am 13.3 11.1 7.7 69 2.7 NW 9 17 5 9 1019.5 1019.5 3.4
25/08:00am 12.9 10.4 8.0 72 2.4 NW 11 24 6 13 1019.5 1019.5 3.4
25/07:30am 12.6 10.5 8.3 75 2.1 NNW 9 17 5 9 1019.4 1019.4 3.4
25/07:00am 12.5 9.7 8.6 77 1.9 NNW 13 20 7 11 1019.3 1019.3 3.4
25/06:30am 11.7 9.3 8.7 82 1.5 NW 11 19 6 10 1019.1 1019.1 3.4
25/06:00am 11.6 9.4 9.3 86 1.2 NW 11 17 6 9 1018.9 1018.9 3.4
25/05:30am 11.5 9.3 9.4 87 1.1 NW 11 17 6 9 1018.6 1018.6 3.4
25/05:00am 12.1 10.1 10.2 88 1.0 NW 11 20 6 11 1018.5 1018.5 3.4
25/04:30am 11.9 9.9 10.1 89 0.9 NW 11 17 6 9 1018.3 1018.3 3.4
25/04:00am 11.1 9.9 9.4 89 0.8 NW 6 11 3 6 1018.3 1018.3 3.4
25/03:30am 11.3 9.2 9.6 89 0.9 NW 11 19 6 10 1018.2 1018.2 3.4
25/03:00am 11.4 9.3 9.7 89 0.9 NW 11 19 6 10 1018.3 1018.3 3.4
25/02:30am 11.6 9.9 10.0 90 0.8 NW 9 17 5 9 1018.5 1018.5 3.4
25/02:00am 11.3 9.2 9.7 90 0.8 NW 11 17 6 9 1018.5 1018.5 3.4
25/01:30am 11.6 9.6 10.2 91 0.7 NW 11 20 6 11 1018.6 1018.6 3.4
25/01:00am 11.7 9.8 10.4 92 0.7 NW 11 17 6 9 1018.7 1018.7 3.4
25/12:30am 11.6 10.4 10.3 92 0.7 NW 7 13 4 7 1018.9 1018.9 3.4
25/12:00am 11.4 9.7 10.0 91 0.7 NNW 9 13 5 7 1018.8 1018.8 3.4
 
Date/Time
EST
Temp
°C
App
Temp
°C
Dew
Point
°C
Rel
Hum
%
Delta-T
°C
Wind Press
QNH
hPa
Press
MSL
hPa
Rain since
9am
mm
Dir  Spd
km/h
Gust
km/h
Spd
kts
Gust
kts
24/11:30pm 11.8 10.3 10.4 91 0.7 NW 9 15 5 8 1018.8 1018.8 3.4
24/11:00pm 12.4 9.1 11.0 91 0.7 WNW 19 35 10 19 1019.0 1019.0 3.4
24/10:30pm 12.0 10.8 10.4 90 0.8 NW 7 11 4 6 1018.9 1018.9 3.2
24/10:00pm 12.4 9.5 11.0 91 0.7 W 17 24 9 13 1018.9 1018.9 3.2
24/09:30pm 12.4 10.1 10.6 89 0.9 WNW 13 20 7 11 1018.9 1018.9 3.2
24/09:00pm 12.5 9.1 10.7 89 0.9 WNW 19 30 10 16 1018.7 1018.7 3.2
24/08:30pm 12.5 9.7 9.9 84 1.3 W 15 22 8 12 1018.5 1018.5 3.0
24/08:00pm 12.9 10.9 8.8 76 2.0 WNW 9 19 5 10 1018.3 1018.3 2.6
24/07:30pm 12.7 10.7 8.8 77 2.0 NW 9 13 5 7 1018.0 1018.0 2.6
24/07:00pm 12.4 11.0 8.9 79 1.7 WNW 6 7 3 4 1018.0 1018.0 2.6
24/06:30pm 12.9 8.6 9.2 78 1.9 W 22 37 12 20 1017.7 1017.7 2.6
24/06:00pm 12.2 9.6 7.7 74 2.2 WNW 11 17 6 9 1017.3 1017.3 2.6

Other Formats:

Comma delimited format used in spreadsheet applications
http://www.bom.gov.au/fwo/IDV60801/IDV60801.94886.axf

JavaScript Object Notation format (JSON) in row-major order
http://www.bom.gov.au/fwo/IDV60801/IDV60801.94886.json